Orrville, Alabama
Current Conditions -  °F | °C
As of 11:55 AM on Saturday 25 Oct 2014 (Local Time) from KSEM Reporting Station
Clear Clear  
Wind Chill: 73°   Ceiling: Unl
Heat Index: 73°   Visibility: 10mi
Dew Point: 52°   Wind: 9mph
Humidity: 47%   Direction: 350°N
Pressure: 30.11"   Gusts: 15mph
Location:  32.31°N, 87.25°W
Report Text: KSEM 251655Z AUTO 35008G13KT 310V020 10SM CLR 23/11 A3011 RMK AO2
Loading
Personal Weather Stations






























Interactive Weather Map
Tropical Storm Tracking
New forecast layout! Learn more

10-Day Weather Forecast

Advertisements
Track Severe Weather on mobile